createdAt,value
2019-04-06T00:03:07.260Z,18.43
2019-04-06T00:06:14.698Z,13.43
2019-04-06T00:09:31.381Z,16.20
2019-04-06T00:12:48.437Z,16.73
2019-04-06T00:16:04.990Z,14.57
2019-04-06T00:19:21.778Z,16.67
2019-04-06T00:22:38.590Z,11.43
2019-04-06T00:25:55.315Z,14.53
2019-04-06T00:29:02.552Z,10.67
2019-04-06T00:32:22.419Z,11.50
2019-04-06T00:35:29.712Z,13.40
2019-04-06T00:38:37.104Z,18.27
2019-04-06T00:41:53.805Z,17.30
2019-04-06T00:45:10.598Z,22.27
2019-04-06T00:48:27.458Z,16.50
2019-04-06T00:51:44.177Z,18.33
2019-04-06T00:55:01.083Z,14.53
2019-04-06T00:58:17.750Z,11.77
2019-04-06T01:01:26.148Z,13.57
2019-04-06T01:04:33.337Z,18.70
2019-04-06T01:07:40.737Z,16.00
2019-04-06T01:10:47.978Z,14.37
2019-04-06T01:13:55.226Z,13.90
2019-04-06T01:17:02.373Z,19.10
2019-04-06T01:20:09.973Z,14.90
2019-04-06T01:23:32.612Z,15.30
2019-04-06T01:26:49.388Z,17.70
2019-04-06T01:30:07.794Z,13.63
2019-04-06T01:33:15.010Z,11.43
2019-04-06T01:36:22.604Z,19.00
2019-04-06T01:39:29.845Z,16.23
2019-04-06T01:42:37.269Z,14.50
2019-04-06T01:45:44.498Z,16.47
2019-04-06T01:49:01.177Z,18.87
2019-04-06T01:52:08.316Z,18.43
2019-04-06T01:55:15.621Z,15.23
2019-04-06T01:58:32.322Z,11.83
2019-04-06T02:01:53.876Z,11.00
2019-04-06T02:05:01.206Z,13.73
2019-04-06T02:08:18.017Z,14.33
2019-04-06T02:11:34.805Z,10.30
2019-04-06T02:14:51.569Z,19.93
2019-04-06T02:18:08.366Z,14.23
2019-04-06T02:21:15.592Z,13.70
2019-04-06T02:24:22.828Z,11.27
2019-04-06T02:27:39.646Z,10.43
2019-04-06T02:31:03.987Z,10.87
2019-04-06T02:34:36.557Z,13.27
2019-04-06T02:38:02.807Z,13.33
2019-04-06T02:41:15.422Z,10.80
2019-04-06T02:44:22.740Z,16.93
2019-04-06T02:47:29.867Z,13.93
2019-04-06T02:50:37.848Z,8.20
2019-04-06T02:53:44.988Z,14.33
2019-04-06T02:56:52.328Z,10.07
2019-04-06T02:59:59.962Z,10.70
2019-04-06T03:03:07.421Z,17.77
2019-04-06T03:06:14.833Z,12.67
2019-04-06T03:09:22.057Z,11.43
2019-04-06T03:12:29.273Z,10.00
2019-04-06T03:15:45.959Z,11.17
2019-04-06T03:18:53.469Z,13.17
2019-04-06T03:22:10.024Z,16.60
2019-04-06T03:25:26.799Z,20.63
2019-04-06T03:28:34.072Z,18.43
2019-04-06T03:31:50.927Z,14.03
2019-04-06T03:35:07.590Z,15.27
2019-04-06T03:38:24.316Z,17.20
2019-04-06T03:41:31.717Z,12.60
2019-04-06T03:44:48.320Z,18.10
2019-04-06T03:47:55.560Z,17.80
2019-04-06T03:51:02.701Z,17.70
2019-04-06T03:54:11.353Z,16.40
2019-04-06T03:57:18.738Z,17.03
2019-04-06T04:00:35.666Z,17.83
2019-04-06T04:03:52.407Z,22.53
2019-04-06T04:07:09.434Z,15.53
2019-04-06T04:10:31.741Z,20.70
2019-04-06T04:13:39.114Z,15.17
2019-04-06T04:16:46.428Z,20.67
2019-04-06T04:19:53.836Z,18.33
2019-04-06T04:23:01.147Z,11.67
2019-04-06T04:26:08.355Z,15.17
2019-04-06T04:29:25.078Z,15.47
2019-04-06T04:32:32.364Z,18.27
2019-04-06T04:35:39.512Z,19.13
2019-04-06T04:38:46.649Z,18.93
2019-04-06T04:41:53.972Z,15.70
2019-04-06T04:45:10.823Z,14.07
2019-04-06T04:48:18.216Z,21.77
2019-04-06T04:51:34.902Z,16.83
2019-04-06T04:54:51.448Z,15.70
2019-04-06T04:57:58.691Z,17.33
2019-04-06T05:01:06.292Z,17.30
2019-04-06T05:04:22.640Z,21.17
2019-04-06T05:07:29.872Z,23.37
2019-04-06T05:10:37.206Z,22.50
2019-04-06T05:14:30.866Z,23.40
2019-04-06T05:17:53.499Z,23.37
2019-04-06T05:21:10.648Z,24.07
2019-04-06T05:24:27.007Z,31.80
2019-04-06T05:27:34.249Z,27.60
2019-04-06T05:30:41.485Z,26.93
2019-04-06T05:33:58.186Z,23.50
2019-04-06T05:37:05.506Z,28.60
2019-04-06T05:40:22.260Z,29.33
2019-04-06T05:43:45.054Z,33.00
2019-04-06T05:47:01.849Z,26.13
2019-04-06T05:50:18.680Z,25.87
2019-04-06T05:53:35.487Z,36.80
2019-04-06T05:56:52.312Z,30.07
2019-04-06T06:00:10.709Z,26.70
2019-04-06T06:03:27.916Z,28.27
2019-04-06T06:06:44.691Z,27.60
2019-04-06T06:10:01.099Z,29.13
2019-04-06T06:13:17.843Z,26.73
2019-04-06T06:16:25.117Z,31.83
2019-04-06T06:19:32.261Z,30.07
2019-04-06T06:22:39.225Z,35.87
2019-04-06T06:25:46.472Z,34.83
2019-04-06T06:28:53.819Z,33.67
2019-04-06T06:32:01.138Z,32.03
2019-04-06T06:35:08.367Z,34.87
2019-04-06T06:38:25.108Z,39.70
2019-04-06T06:41:41.859Z,38.03
2019-04-06T06:44:50.748Z,34.53
2019-04-06T06:48:07.889Z,36.77
2019-04-06T06:51:13.493Z,40.60
2019-04-06T06:54:30.262Z,36.30
2019-04-06T06:57:47.019Z,38.47
2019-04-06T07:00:54.270Z,29.93
2019-04-06T07:04:01.491Z,29.27
2019-04-06T07:07:08.640Z,45.20
2019-04-06T07:10:15.898Z,32.57
2019-04-06T07:13:32.604Z,38.13
2019-04-06T07:16:40.039Z,31.93
2019-04-06T07:19:56.703Z,33.17
2019-04-06T07:23:13.503Z,26.93
2019-04-06T07:26:30.280Z,34.13
2019-04-06T07:29:46.995Z,30.53
2019-04-06T07:32:55.414Z,30.40
2019-04-06T07:36:02.748Z,25.50
2019-04-06T07:39:10.016Z,33.33
2019-04-06T07:42:17.165Z,30.77
2019-04-06T07:45:24.470Z,34.40
2019-04-06T07:48:31.629Z,32.13
2019-04-06T07:51:39.008Z,39.60
2019-04-06T07:54:46.098Z,30.00
2019-04-06T07:57:53.343Z,29.50
2019-04-06T08:01:00.495Z,32.23
2019-04-06T08:04:07.757Z,29.77
2019-04-06T08:07:15.108Z,29.00
2019-04-06T08:10:31.798Z,32.97
2019-04-06T08:13:48.573Z,23.20
2019-04-06T08:17:05.442Z,37.43
2019-04-06T08:20:22.222Z,28.37
2019-04-06T08:23:39.043Z,30.17
2019-04-06T08:26:55.816Z,34.47
2019-04-06T08:30:02.910Z,26.60
2019-04-06T08:33:10.192Z,28.83
2019-04-06T08:36:27.378Z,26.20
2019-04-06T08:39:34.635Z,29.87
2019-04-06T08:42:51.362Z,29.90
2019-04-06T08:45:58.645Z,27.53
2019-04-06T08:49:15.578Z,31.33
2019-04-06T08:52:32.218Z,25.03
2019-04-06T08:55:39.490Z,27.40
2019-04-06T08:58:56.152Z,30.47
2019-04-06T09:02:03.377Z,28.07
2019-04-06T09:05:10.782Z,28.90
2019-04-06T09:08:27.724Z,27.63
2019-04-06T09:11:44.199Z,25.53
2019-04-06T09:14:51.488Z,32.63
2019-04-06T09:18:08.460Z,30.47
2019-04-06T09:21:25.217Z,30.47
2019-04-06T09:24:32.497Z,24.30
2019-04-06T09:27:49.177Z,26.37
2019-04-06T09:30:56.430Z,25.83
2019-04-06T09:34:13.384Z,25.40
2019-04-06T09:37:30.131Z,24.73
2019-04-06T09:40:37.299Z,24.77
2019-04-06T09:43:44.535Z,28.97
2019-04-06T09:47:05.807Z,25.37
2019-04-06T09:50:22.706Z,29.13
2019-04-06T09:54:06.209Z,26.40
2019-04-06T09:57:45.648Z,22.97
2019-04-06T10:01:12.593Z,28.87
2019-04-06T10:04:29.668Z,32.47
2019-04-06T10:07:55.831Z,33.50
2019-04-06T10:11:34.572Z,31.30
2019-04-06T10:15:07.121Z,34.00
2019-04-06T10:18:42.423Z,29.20
2019-04-06T10:22:17.445Z,27.97
2019-04-06T10:26:03.465Z,28.90
2019-04-06T10:29:48.930Z,27.00
2019-04-06T10:32:59.657Z,27.27
2019-04-06T10:36:15.803Z,27.47
2019-04-06T10:39:29.697Z,30.03
2019-04-06T10:42:54.568Z,33.23
2019-04-06T10:46:24.427Z,30.17
2019-04-06T10:49:50.696Z,26.90
2019-04-06T10:53:15.864Z,27.00
2019-04-06T10:56:44.889Z,33.40
2019-04-06T11:00:11.098Z,24.93
2019-04-06T11:03:27.571Z,27.73
2019-04-06T11:07:23.639Z,27.87
2019-04-06T11:10:52.266Z,30.77
2019-04-06T11:14:35.885Z,29.63
2019-04-06T11:17:59.070Z,25.37
2019-04-06T11:21:25.459Z,30.67
2019-04-06T11:24:51.758Z,23.40
2019-04-06T11:28:21.132Z,27.00
2019-04-06T11:31:45.856Z,30.00
2019-04-06T11:35:14.882Z,31.33
2019-04-06T11:39:07.287Z,27.17
2019-04-06T11:42:33.890Z,23.63
2019-04-06T11:45:50.670Z,26.57
2019-04-06T11:49:19.679Z,32.67
2019-04-06T11:52:36.043Z,22.80
2019-04-06T11:56:37.488Z,24.57
2019-04-06T12:00:02.486Z,23.60
2019-04-06T12:03:37.474Z,27.37
2019-04-06T12:07:08.611Z,23.43
2019-04-06T12:10:22.570Z,24.00
2019-04-06T12:14:04.387Z,22.03
2019-04-06T12:17:18.623Z,20.87
2019-04-06T12:21:00.646Z,18.27
2019-04-06T12:24:56.732Z,20.33
2019-04-06T12:28:25.668Z,16.80
2019-04-06T12:32:14.951Z,16.20
2019-04-06T12:35:49.094Z,16.53
2019-04-06T12:39:34.078Z,14.27
2019-04-06T12:43:15.132Z,14.60
2019-04-06T12:46:38.462Z,15.37
2019-04-06T12:50:03.844Z,16.52
2019-04-06T12:53:45.662Z,15.90
2019-04-06T12:57:12.207Z,13.83
2019-04-06T13:00:49.470Z,12.28
2019-04-06T13:04:37.046Z,15.77
2019-04-06T13:08:02.083Z,14.60
2019-04-06T13:11:35.069Z,12.78
2019-04-06T13:15:13.632Z,13.75
2019-04-06T13:18:28.679Z,11.18
2019-04-06T13:21:49.901Z,13.15
2019-04-06T13:25:46.166Z,11.90
2019-04-06T13:29:11.652Z,12.20
2019-04-06T13:32:49.641Z,14.70
2019-04-06T13:36:15.101Z,12.23
2019-04-06T13:39:30.671Z,15.33
2019-04-06T13:43:02.240Z,13.07
2019-04-06T13:46:28.224Z,13.43
2019-04-06T13:50:17.552Z,10.60
2019-04-06T13:53:53.743Z,10.32
2019-04-06T13:57:26.345Z,10.40
2019-04-06T14:00:56.381Z,9.08
2019-04-06T14:04:34.596Z,10.03
2019-04-06T14:08:12.247Z,10.25
2019-04-06T14:11:27.554Z,8.85
2019-04-06T14:14:52.287Z,7.58
2019-04-06T14:18:08.111Z,7.90
2019-04-06T14:21:34.275Z,11.95
2019-04-06T14:25:00.514Z,14.50
2019-04-06T14:28:26.786Z,15.13
2019-04-06T14:31:46.503Z,16.97
2019-04-06T14:35:18.688Z,17.20
2019-04-06T14:39:09.636Z,15.33
2019-04-06T14:42:34.512Z,12.78
2019-04-06T14:46:04.256Z,17.63
2019-04-06T14:49:29.903Z,19.40
2019-04-06T14:53:27.123Z,19.47
2019-04-06T14:57:02.581Z,15.90
2019-04-06T15:00:21.873Z,19.13
2019-04-06T15:03:40.316Z,15.50
2019-04-06T15:07:10.692Z,15.40
2019-04-06T15:10:28.505Z,16.97
2019-04-06T15:14:20.815Z,15.20
2019-04-06T15:17:34.676Z,18.37
2019-04-06T15:20:51.972Z,14.37
2019-04-06T15:24:33.625Z,18.53
2019-04-06T15:27:47.267Z,18.57
2019-04-06T15:31:03.962Z,17.17
2019-04-06T15:34:46.048Z,15.07
2019-04-06T15:38:15.752Z,13.70
2019-04-06T15:41:35.518Z,14.90
2019-04-06T15:45:21.839Z,15.50
2019-04-06T15:48:46.789Z,21.83
2019-04-06T15:52:15.556Z,19.33
2019-04-06T15:55:43.437Z,13.97
2019-04-06T15:59:04.554Z,16.27
2019-04-06T16:02:29.548Z,15.63
2019-04-06T16:06:15.811Z,17.07
2019-04-06T16:09:42.250Z,17.17
2019-04-06T16:13:08.598Z,18.23
2019-04-06T16:16:20.616Z,17.13
2019-04-06T16:19:35.739Z,18.30
2019-04-06T16:23:07.962Z,16.37
2019-04-06T16:26:50.132Z,18.73
2019-04-06T16:30:25.859Z,16.13
2019-04-06T16:33:42.551Z,17.27
2019-04-06T16:37:01.726Z,17.37
2019-04-06T16:40:37.066Z,19.00
2019-04-06T16:44:12.131Z,16.87
2019-04-06T16:47:35.979Z,18.73
2019-04-06T16:50:54.131Z,16.30
2019-04-06T16:54:08.217Z,15.67
2019-04-06T16:57:55.351Z,15.93
2019-04-06T17:01:44.491Z,19.60
2019-04-06T17:05:03.739Z,17.37
2019-04-06T17:09:05.494Z,22.33
2019-04-06T17:12:39.486Z,17.10
2019-04-06T17:16:19.120Z,15.40
2019-04-06T17:19:37.346Z,18.63
2019-04-06T17:23:03.907Z,20.47
2019-04-06T17:26:35.842Z,16.70
2019-04-06T17:30:25.985Z,19.43
2019-04-06T17:33:49.513Z,16.73
2019-04-06T17:37:10.358Z,17.93
2019-04-06T17:40:24.387Z,12.87
2019-04-06T17:43:52.829Z,18.90
2019-04-06T17:47:25.176Z,16.57
2019-04-06T17:50:44.120Z,15.07
2019-04-06T17:54:26.020Z,18.03
2019-04-06T17:57:41.048Z,15.73
2019-04-06T18:01:13.252Z,20.57
2019-04-06T18:04:46.435Z,15.77
2019-04-06T18:08:08.222Z,16.00
2019-04-06T18:11:36.476Z,12.73
2019-04-06T18:14:42.250Z,16.03
2019-04-06T18:17:48.342Z,19.40
2019-04-06T18:20:55.701Z,17.20
2019-04-06T18:24:03.577Z,15.47
2019-04-06T18:27:10.804Z,16.17
2019-04-06T18:30:18.249Z,17.13
2019-04-06T18:33:26.104Z,21.93
2019-04-06T18:36:46.043Z,14.23
2019-04-06T18:39:53.954Z,20.83
2019-04-06T18:43:01.517Z,19.77
2019-04-06T18:46:18.229Z,28.83
2019-04-06T18:49:26.024Z,24.07
2019-04-06T18:52:33.994Z,23.67
2019-04-06T18:55:41.227Z,23.13
2019-04-06T18:58:48.575Z,18.50
2019-04-06T19:01:56.288Z,17.30
2019-04-06T19:05:12.758Z,18.07
2019-04-06T19:08:29.680Z,15.60
2019-04-06T19:11:54.475Z,18.90
2019-04-06T19:15:06.944Z,15.53
2019-04-06T19:18:14.474Z,22.20
2019-04-06T19:21:21.913Z,15.53
2019-04-06T19:24:29.676Z,14.90
2019-04-06T19:27:46.376Z,19.03
2019-04-06T19:31:03.072Z,18.53
2019-04-06T19:34:10.408Z,20.77
2019-04-06T19:37:27.080Z,18.00
2019-04-06T19:40:34.568Z,21.63
2019-04-06T19:43:51.136Z,17.20
2019-04-06T19:47:07.863Z,16.70
2019-04-06T19:50:15.782Z,22.50
2019-04-06T19:53:23.159Z,20.03
2019-04-06T19:56:30.379Z,17.60
2019-04-06T19:59:37.527Z,18.27
2019-04-06T20:02:44.832Z,24.30
2019-04-06T20:05:52.231Z,17.90
2019-04-06T20:08:59.555Z,15.90
2019-04-06T20:12:07.833Z,17.13
2019-04-06T20:15:15.496Z,18.73
2019-04-06T20:18:22.919Z,18.00
2019-04-06T20:21:30.706Z,18.07
2019-04-06T20:24:36.418Z,22.17
2019-04-06T20:27:52.749Z,20.90
2019-04-06T20:30:59.349Z,19.50
2019-04-06T20:34:06.694Z,18.67
2019-04-06T20:37:14.038Z,16.50
2019-04-06T20:40:22.018Z,19.63
2019-04-06T20:43:29.340Z,17.07
2019-04-06T20:46:36.681Z,19.20
2019-04-06T20:49:44.005Z,16.97
2019-04-06T20:52:51.257Z,15.30
2019-04-06T20:55:58.570Z,18.97
2019-04-06T20:59:06.487Z,16.70
2019-04-06T21:02:23.072Z,20.90
2019-04-06T21:05:30.237Z,21.10
2019-04-06T21:08:37.374Z,16.80
2019-04-06T21:11:44.798Z,18.57
2019-04-06T21:15:01.706Z,18.17
2019-04-06T21:18:09.472Z,14.40
2019-04-06T21:21:16.716Z,16.60
2019-04-06T21:24:22.826Z,20.13
2019-04-06T21:27:30.415Z,24.83
2019-04-06T21:30:47.137Z,18.40
2019-04-06T21:34:10.437Z,22.10
2019-04-06T21:37:13.393Z,16.13
2019-04-06T21:40:21.475Z,27.57
2019-04-06T21:43:38.264Z,19.37
2019-04-06T21:46:45.518Z,15.97
2019-04-06T21:50:02.229Z,24.13
2019-04-06T21:53:19.597Z,19.47
2019-04-06T21:56:27.155Z,20.40
2019-04-06T21:59:34.515Z,21.50
2019-04-06T22:02:41.781Z,21.53
2019-04-06T22:05:48.807Z,22.97
2019-04-06T22:08:56.789Z,21.67
2019-04-06T22:12:15.595Z,20.83
2019-04-06T22:15:23.613Z,19.97
2019-04-06T22:18:30.803Z,25.70
2019-04-06T22:21:38.485Z,18.50
2019-04-06T22:24:46.294Z,23.10
2019-04-06T22:28:02.800Z,20.23
2019-04-06T22:31:11.020Z,21.50
2019-04-06T22:34:18.437Z,17.60
2019-04-06T22:37:25.631Z,24.43
2019-04-06T22:40:33.509Z,21.70
2019-04-06T22:43:41.400Z,21.93
2019-04-06T22:46:48.734Z,18.13
2019-04-06T22:49:56.187Z,22.47
2019-04-06T22:53:13.249Z,21.27
2019-04-06T22:56:31.001Z,19.23
2019-04-06T22:59:38.228Z,19.43
2019-04-06T23:03:03.929Z,16.40
2019-04-06T23:06:14.321Z,16.33
2019-04-06T23:09:21.704Z,16.90
2019-04-06T23:12:29.045Z,21.03
2019-04-06T23:15:36.416Z,19.10
2019-04-06T23:18:43.589Z,21.83
2019-04-06T23:21:50.924Z,23.70
2019-04-06T23:24:58.260Z,19.60
2019-04-06T23:28:05.856Z,16.07
2019-04-06T23:31:13.159Z,15.47
2019-04-06T23:34:20.840Z,21.17
2019-04-06T23:37:28.087Z,18.87
2019-04-06T23:40:35.414Z,24.67
2019-04-06T23:43:42.784Z,21.17
2019-04-06T23:46:50.135Z,23.53
2019-04-06T23:49:57.507Z,20.93
2019-04-06T23:53:04.831Z,19.30
2019-04-06T23:56:12.185Z,21.07
2019-04-06T23:59:19.992Z,17.23
